sensor_id;sensor_type;location;lat;lon;timestamp;P1;durP1;ratioP1;P2;durP2;ratioP2
77602;SDS011;66771;52.434;17.056;2023-03-16T00:01:42;32.70;;;15.70;;
77602;SDS011;66771;52.434;17.056;2023-03-16T00:04:09;32.10;;;15.70;;
77602;SDS011;66771;52.434;17.056;2023-03-16T00:06:36;28.00;;;14.80;;
77602;SDS011;66771;52.434;17.056;2023-03-16T00:09:02;33.90;;;16.10;;
77602;SDS011;66771;52.434;17.056;2023-03-16T00:11:29;30.50;;;14.90;;
77602;SDS011;66771;52.434;17.056;2023-03-16T00:13:56;29.70;;;13.40;;
77602;SDS011;66771;52.434;17.056;2023-03-16T00:16:24;33.90;;;13.60;;
77602;SDS011;66771;52.434;17.056;2023-03-16T00:18:50;28.80;;;14.10;;
77602;SDS011;66771;52.434;17.056;2023-03-16T00:21:17;29.70;;;12.50;;
77602;SDS011;66771;52.434;17.056;2023-03-16T00:23:44;25.20;;;12.80;;
77602;SDS011;66771;52.434;17.056;2023-03-16T00:26:10;25.30;;;12.00;;
77602;SDS011;66771;52.434;17.056;2023-03-16T00:28:38;29.00;;;13.60;;
77602;SDS011;66771;52.434;17.056;2023-03-16T00:31:06;24.20;;;12.80;;
77602;SDS011;66771;52.434;17.056;2023-03-16T00:33:34;26.80;;;12.80;;
77602;SDS011;66771;52.434;17.056;2023-03-16T00:36:01;24.30;;;13.00;;
77602;SDS011;66771;52.434;17.056;2023-03-16T00:38:30;25.30;;;13.30;;
77602;SDS011;66771;52.434;17.056;2023-03-16T00:41:00;24.50;;;11.30;;
77602;SDS011;66771;52.434;17.056;2023-03-16T00:43:30;22.60;;;11.70;;
77602;SDS011;66771;52.434;17.056;2023-03-16T00:46:06;27.90;;;11.70;;
77602;SDS011;66771;52.434;17.056;2023-03-16T00:48:35;23.90;;;10.50;;
77602;SDS011;66771;52.434;17.056;2023-03-16T00:51:05;23.20;;;10.60;;
77602;SDS011;66771;52.434;17.056;2023-03-16T00:53:34;19.70;;;10.40;;
77602;SDS011;66771;52.434;17.056;2023-03-16T00:56:02;26.70;;;10.70;;
77602;SDS011;66771;52.434;17.056;2023-03-16T00:58:34;22.40;;;10.20;;
77602;SDS011;66771;52.434;17.056;2023-03-16T01:01:05;27.60;;;10.80;;
77602;SDS011;66771;52.434;17.056;2023-03-16T01:03:33;23.00;;;10.50;;
77602;SDS011;66771;52.434;17.056;2023-03-16T01:06:10;24.10;;;10.80;;
77602;SDS011;66771;52.434;17.056;2023-03-16T01:08:38;23.20;;;9.10;;
77602;SDS011;66771;52.434;17.056;2023-03-16T01:11:17;15.60;;;8.70;;
77602;SDS011;66771;52.434;17.056;2023-03-16T01:13:46;17.90;;;8.60;;
77602;SDS011;66771;52.434;17.056;2023-03-16T01:16:14;20.00;;;8.80;;
77602;SDS011;66771;52.434;17.056;2023-03-16T01:18:44;19.10;;;9.00;;
77602;SDS011;66771;52.434;17.056;2023-03-16T01:21:11;20.30;;;8.80;;
77602;SDS011;66771;52.434;17.056;2023-03-16T01:23:39;18.00;;;8.30;;
77602;SDS011;66771;52.434;17.056;2023-03-16T01:26:06;19.60;;;8.90;;
77602;SDS011;66771;52.434;17.056;2023-03-16T01:28:33;18.80;;;9.30;;
77602;SDS011;66771;52.434;17.056;2023-03-16T01:31:05;25.00;;;7.80;;
77602;SDS011;66771;52.434;17.056;2023-03-16T01:33:34;15.10;;;7.40;;
77602;SDS011;66771;52.434;17.056;2023-03-16T01:36:04;14.40;;;6.90;;
77602;SDS011;66771;52.434;17.056;2023-03-16T01:38:41;18.30;;;7.90;;
77602;SDS011;66771;52.434;17.056;2023-03-16T01:41:08;18.50;;;7.90;;
77602;SDS011;66771;52.434;17.056;2023-03-16T01:43:36;14.70;;;7.10;;
77602;SDS011;66771;52.434;17.056;2023-03-16T01:48:36;16.60;;;8.40;;
77602;SDS011;66771;52.434;17.056;2023-03-16T01:51:27;23.40;;;9.00;;
77602;SDS011;66771;52.434;17.056;2023-03-16T01:54:16;16.90;;;8.90;;
77602;SDS011;66771;52.434;17.056;2023-03-16T01:59:37;16.60;;;7.90;;
77602;SDS011;66771;52.434;17.056;2023-03-16T02:02:09;19.90;;;6.40;;
77602;SDS011;66771;52.434;17.056;2023-03-16T02:04:41;17.50;;;7.40;;
77602;SDS011;66771;52.434;17.056;2023-03-16T02:07:10;12.80;;;6.30;;
77602;SDS011;66771;52.434;17.056;2023-03-16T02:09:39;11.20;;;6.00;;
77602;SDS011;66771;52.434;17.056;2023-03-16T02:12:11;13.20;;;6.70;;
77602;SDS011;66771;52.434;17.056;2023-03-16T02:14:48;19.80;;;7.70;;
77602;SDS011;66771;52.434;17.056;2023-03-16T02:17:18;11.10;;;5.80;;
77602;SDS011;66771;52.434;17.056;2023-03-16T02:20:52;13.80;;;6.60;;
77602;SDS011;66771;52.434;17.056;2023-03-16T02:22:52;15.50;;;6.60;;
77602;SDS011;66771;52.434;17.056;2023-03-16T02:25:22;11.50;;;6.20;;
77602;SDS011;66771;52.434;17.056;2023-03-16T02:30:28;15.70;;;6.50;;
77602;SDS011;66771;52.434;17.056;2023-03-16T02:33:01;14.00;;;5.90;;
77602;SDS011;66771;52.434;17.056;2023-03-16T02:35:32;19.00;;;7.70;;
77602;SDS011;66771;52.434;17.056;2023-03-16T02:38:00;13.50;;;5.60;;
77602;SDS011;66771;52.434;17.056;2023-03-16T02:40:32;21.00;;;6.50;;
77602;SDS011;66771;52.434;17.056;2023-03-16T02:43:10;13.90;;;6.40;;
77602;SDS011;66771;52.434;17.056;2023-03-16T02:45:46;12.20;;;5.50;;
77602;SDS011;66771;52.434;17.056;2023-03-16T02:48:26;13.10;;;6.50;;
77602;SDS011;66771;52.434;17.056;2023-03-16T02:50:58;14.90;;;5.40;;
77602;SDS011;66771;52.434;17.056;2023-03-16T02:53:26;13.00;;;5.60;;
77602;SDS011;66771;52.434;17.056;2023-03-16T02:55:55;10.60;;;5.60;;
77602;SDS011;66771;52.434;17.056;2023-03-16T02:58:21;12.80;;;5.10;;
77602;SDS011;66771;52.434;17.056;2023-03-16T03:00:48;8.80;;;4.90;;
77602;SDS011;66771;52.434;17.056;2023-03-16T03:03:16;11.80;;;5.00;;
77602;SDS011;66771;52.434;17.056;2023-03-16T03:05:43;9.80;;;5.80;;
77602;SDS011;66771;52.434;17.056;2023-03-16T03:08:10;9.10;;;4.60;;
77602;SDS011;66771;52.434;17.056;2023-03-16T03:10:38;11.50;;;5.30;;
77602;SDS011;66771;52.434;17.056;2023-03-16T03:13:05;9.30;;;4.50;;
77602;SDS011;66771;52.434;17.056;2023-03-16T03:15:35;15.00;;;5.50;;
77602;SDS011;66771;52.434;17.056;2023-03-16T03:18:07;10.10;;;5.30;;
77602;SDS011;66771;52.434;17.056;2023-03-16T03:20:34;10.10;;;5.50;;
77602;SDS011;66771;52.434;17.056;2023-03-16T03:23:01;16.60;;;5.30;;
77602;SDS011;66771;52.434;17.056;2023-03-16T03:25:28;11.00;;;5.10;;
77602;SDS011;66771;52.434;17.056;2023-03-16T03:27:56;9.40;;;5.50;;
77602;SDS011;66771;52.434;17.056;2023-03-16T03:30:23;8.40;;;4.50;;
77602;SDS011;66771;52.434;17.056;2023-03-16T03:32:50;9.70;;;5.50;;
77602;SDS011;66771;52.434;17.056;2023-03-16T03:35:19;9.60;;;4.80;;
77602;SDS011;66771;52.434;17.056;2023-03-16T03:37:47;10.00;;;4.80;;
77602;SDS011;66771;52.434;17.056;2023-03-16T03:40:15;9.50;;;4.70;;
77602;SDS011;66771;52.434;17.056;2023-03-16T03:42:46;9.40;;;5.00;;
77602;SDS011;66771;52.434;17.056;2023-03-16T03:45:14;10.20;;;4.20;;
77602;SDS011;66771;52.434;17.056;2023-03-16T03:47:42;10.70;;;5.30;;
77602;SDS011;66771;52.434;17.056;2023-03-16T03:50:13;10.50;;;4.20;;
77602;SDS011;66771;52.434;17.056;2023-03-16T03:52:52;10.80;;;4.40;;
77602;SDS011;66771;52.434;17.056;2023-03-16T03:55:19;9.90;;;4.20;;
77602;SDS011;66771;52.434;17.056;2023-03-16T03:57:46;11.90;;;4.40;;
77602;SDS011;66771;52.434;17.056;2023-03-16T04:00:13;10.60;;;4.90;;
77602;SDS011;66771;52.434;17.056;2023-03-16T04:02:41;7.90;;;4.70;;
77602;SDS011;66771;52.434;17.056;2023-03-16T04:05:13;11.30;;;4.50;;
77602;SDS011;66771;52.434;17.056;2023-03-16T04:07:40;9.80;;;4.80;;
77602;SDS011;66771;52.434;17.056;2023-03-16T04:10:09;19.60;;;5.10;;
77602;SDS011;66771;52.434;17.056;2023-03-16T04:12:41;9.20;;;4.20;;
77602;SDS011;66771;52.434;17.056;2023-03-16T04:15:10;11.10;;;4.30;;
77602;SDS011;66771;52.434;17.056;2023-03-16T04:17:56;14.30;;;3.70;;
77602;SDS011;66771;52.434;17.056;2023-03-16T04:20:24;9.70;;;4.30;;
77602;SDS011;66771;52.434;17.056;2023-03-16T04:22:51;11.10;;;4.20;;
77602;SDS011;66771;52.434;17.056;2023-03-16T04:25:24;9.70;;;4.50;;
77602;SDS011;66771;52.434;17.056;2023-03-16T04:27:52;11.40;;;7.00;;
77602;SDS011;66771;52.434;17.056;2023-03-16T04:30:20;9.60;;;4.80;;
77602;SDS011;66771;52.434;17.056;2023-03-16T04:32:50;11.10;;;4.90;;
77602;SDS011;66771;52.434;17.056;2023-03-16T04:35:19;12.30;;;4.80;;
77602;SDS011;66771;52.434;17.056;2023-03-16T04:37:48;11.90;;;5.00;;
77602;SDS011;66771;52.434;17.056;2023-03-16T04:40:16;11.50;;;5.30;;
77602;SDS011;66771;52.434;17.056;2023-03-16T04:42:47;10.60;;;5.20;;
77602;SDS011;66771;52.434;17.056;2023-03-16T04:45:17;13.10;;;7.00;;
77602;SDS011;66771;52.434;17.056;2023-03-16T04:47:44;12.80;;;5.70;;
77602;SDS011;66771;52.434;17.056;2023-03-16T04:50:12;12.00;;;5.60;;
77602;SDS011;66771;52.434;17.056;2023-03-16T04:52:40;8.40;;;4.80;;
77602;SDS011;66771;52.434;17.056;2023-03-16T04:55:07;11.40;;;4.50;;
77602;SDS011;66771;52.434;17.056;2023-03-16T04:57:34;9.50;;;5.10;;
77602;SDS011;66771;52.434;17.056;2023-03-16T05:00:02;13.90;;;4.50;;
77602;SDS011;66771;52.434;17.056;2023-03-16T05:02:50;13.80;;;5.20;;
77602;SDS011;66771;52.434;17.056;2023-03-16T05:05:18;16.50;;;5.10;;
77602;SDS011;66771;52.434;17.056;2023-03-16T05:07:47;8.50;;;4.00;;
77602;SDS011;66771;52.434;17.056;2023-03-16T05:10:15;11.00;;;4.90;;
77602;SDS011;66771;52.434;17.056;2023-03-16T05:12:44;9.20;;;4.70;;
77602;SDS011;66771;52.434;17.056;2023-03-16T05:15:11;13.40;;;4.20;;
77602;SDS011;66771;52.434;17.056;2023-03-16T05:17:44;6.60;;;3.80;;
77602;SDS011;66771;52.434;17.056;2023-03-16T05:20:13;9.30;;;4.00;;
77602;SDS011;66771;52.434;17.056;2023-03-16T05:22:44;17.30;;;5.00;;
77602;SDS011;66771;52.434;17.056;2023-03-16T05:25:33;10.40;;;4.40;;
77602;SDS011;66771;52.434;17.056;2023-03-16T05:28:03;11.40;;;4.90;;
77602;SDS011;66771;52.434;17.056;2023-03-16T05:30:51;16.10;;;7.20;;
77602;SDS011;66771;52.434;17.056;2023-03-16T05:33:21;12.80;;;6.30;;
77602;SDS011;66771;52.434;17.056;2023-03-16T05:35:50;16.80;;;6.10;;
77602;SDS011;66771;52.434;17.056;2023-03-16T05:38:18;10.10;;;4.10;;
77602;SDS011;66771;52.434;17.056;2023-03-16T05:40:45;9.10;;;4.50;;
77602;SDS011;66771;52.434;17.056;2023-03-16T05:43:26;9.40;;;4.90;;
77602;SDS011;66771;52.434;17.056;2023-03-16T05:45:58;10.80;;;3.90;;
77602;SDS011;66771;52.434;17.056;2023-03-16T05:48:25;8.20;;;3.70;;
77602;SDS011;66771;52.434;17.056;2023-03-16T05:50:54;14.00;;;5.00;;
77602;SDS011;66771;52.434;17.056;2023-03-16T05:53:25;11.70;;;5.00;;
77602;SDS011;66771;52.434;17.056;2023-03-16T05:55:54;12.40;;;5.00;;
77602;SDS011;66771;52.434;17.056;2023-03-16T05:58:21;14.10;;;5.60;;
77602;SDS011;66771;52.434;17.056;2023-03-16T06:00:49;13.00;;;5.00;;
77602;SDS011;66771;52.434;17.056;2023-03-16T06:03:25;9.60;;;4.50;;
77602;SDS011;66771;52.434;17.056;2023-03-16T06:05:52;16.80;;;4.90;;
77602;SDS011;66771;52.434;17.056;2023-03-16T06:08:26;13.70;;;5.20;;
77602;SDS011;66771;52.434;17.056;2023-03-16T06:10:54;9.00;;;4.50;;
77602;SDS011;66771;52.434;17.056;2023-03-16T06:13:20;10.80;;;5.20;;
77602;SDS011;66771;52.434;17.056;2023-03-16T06:15:48;10.80;;;5.20;;
77602;SDS011;66771;52.434;17.056;2023-03-16T06:18:15;14.30;;;5.40;;
77602;SDS011;66771;52.434;17.056;2023-03-16T06:20:43;15.70;;;5.80;;
77602;SDS011;66771;52.434;17.056;2023-03-16T06:23:12;12.00;;;5.70;;
77602;SDS011;66771;52.434;17.056;2023-03-16T06:25:40;13.70;;;6.20;;
77602;SDS011;66771;52.434;17.056;2023-03-16T06:28:07;17.20;;;5.90;;
77602;SDS011;66771;52.434;17.056;2023-03-16T06:30:34;14.20;;;5.30;;
77602;SDS011;66771;52.434;17.056;2023-03-16T06:33:01;15.70;;;5.80;;
77602;SDS011;66771;52.434;17.056;2023-03-16T06:35:28;15.20;;;5.70;;
77602;SDS011;66771;52.434;17.056;2023-03-16T06:38:11;15.90;;;5.70;;
77602;SDS011;66771;52.434;17.056;2023-03-16T06:44:11;15.70;;;5.90;;
77602;SDS011;66771;52.434;17.056;2023-03-16T06:46:41;14.90;;;6.50;;
77602;SDS011;66771;52.434;17.056;2023-03-16T06:49:08;14.40;;;6.20;;
77602;SDS011;66771;52.434;17.056;2023-03-16T06:51:36;10.70;;;5.10;;
77602;SDS011;66771;52.434;17.056;2023-03-16T06:54:03;17.10;;;6.60;;
77602;SDS011;66771;52.434;17.056;2023-03-16T06:56:30;12.60;;;5.70;;
77602;SDS011;66771;52.434;17.056;2023-03-16T06:58:58;13.10;;;5.30;;
77602;SDS011;66771;52.434;17.056;2023-03-16T07:01:25;17.00;;;6.20;;
77602;SDS011;66771;52.434;17.056;2023-03-16T07:03:52;12.40;;;5.00;;
77602;SDS011;66771;52.434;17.056;2023-03-16T07:06:23;15.30;;;5.80;;
77602;SDS011;66771;52.434;17.056;2023-03-16T07:08:50;15.80;;;5.30;;
77602;SDS011;66771;52.434;17.056;2023-03-16T07:11:18;23.10;;;6.30;;
77602;SDS011;66771;52.434;17.056;2023-03-16T07:13:45;11.50;;;5.80;;
77602;SDS011;66771;52.434;17.056;2023-03-16T07:16:12;17.10;;;5.40;;
77602;SDS011;66771;52.434;17.056;2023-03-16T07:18:39;16.10;;;5.50;;
77602;SDS011;66771;52.434;17.056;2023-03-16T07:21:10;13.30;;;4.90;;
77602;SDS011;66771;52.434;17.056;2023-03-16T07:23:37;12.60;;;4.80;;
77602;SDS011;66771;52.434;17.056;2023-03-16T07:26:05;13.00;;;5.50;;
77602;SDS011;66771;52.434;17.056;2023-03-16T07:28:34;16.10;;;5.20;;
77602;SDS011;66771;52.434;17.056;2023-03-16T07:31:01;11.10;;;5.40;;
77602;SDS011;66771;52.434;17.056;2023-03-16T07:33:30;14.60;;;5.60;;
77602;SDS011;66771;52.434;17.056;2023-03-16T07:36:01;15.30;;;5.60;;
77602;SDS011;66771;52.434;17.056;2023-03-16T07:38:33;14.90;;;5.40;;
77602;SDS011;66771;52.434;17.056;2023-03-16T07:41:02;12.50;;;5.00;;
77602;SDS011;66771;52.434;17.056;2023-03-16T07:43:30;11.40;;;4.30;;
77602;SDS011;66771;52.434;17.056;2023-03-16T07:45:57;12.80;;;5.70;;
77602;SDS011;66771;52.434;17.056;2023-03-16T07:48:34;13.90;;;4.30;;
77602;SDS011;66771;52.434;17.056;2023-03-16T07:51:02;12.00;;;4.00;;
77602;SDS011;66771;52.434;17.056;2023-03-16T07:53:29;8.70;;;3.30;;
77602;SDS011;66771;52.434;17.056;2023-03-16T07:56:16;16.40;;;3.90;;
77602;SDS011;66771;52.434;17.056;2023-03-16T07:58:45;11.40;;;3.70;;
77602;SDS011;66771;52.434;17.056;2023-03-16T08:01:13;6.40;;;3.10;;
77602;SDS011;66771;52.434;17.056;2023-03-16T08:03:40;10.70;;;3.10;;
77602;SDS011;66771;52.434;17.056;2023-03-16T08:06:07;13.80;;;4.10;;
77602;SDS011;66771;52.434;17.056;2023-03-16T08:08:34;15.00;;;4.10;;
77602;SDS011;66771;52.434;17.056;2023-03-16T08:11:01;10.70;;;3.70;;
77602;SDS011;66771;52.434;17.056;2023-03-16T08:13:38;20.90;;;3.60;;
77602;SDS011;66771;52.434;17.056;2023-03-16T08:16:06;11.60;;;3.80;;
77602;SDS011;66771;52.434;17.056;2023-03-16T08:18:37;12.00;;;4.20;;
77602;SDS011;66771;52.434;17.056;2023-03-16T08:21:05;15.80;;;4.20;;
77602;SDS011;66771;52.434;17.056;2023-03-16T08:23:32;14.10;;;4.30;;
77602;SDS011;66771;52.434;17.056;2023-03-16T08:25:59;12.60;;;3.40;;
77602;SDS011;66771;52.434;17.056;2023-03-16T08:28:26;8.20;;;2.70;;
77602;SDS011;66771;52.434;17.056;2023-03-16T08:30:54;10.10;;;3.90;;
77602;SDS011;66771;52.434;17.056;2023-03-16T08:33:33;9.10;;;3.70;;
77602;SDS011;66771;52.434;17.056;2023-03-16T08:36:01;11.90;;;3.60;;
77602;SDS011;66771;52.434;17.056;2023-03-16T08:38:32;9.30;;;3.60;;
77602;SDS011;66771;52.434;17.056;2023-03-16T08:41:03;9.70;;;3.30;;
77602;SDS011;66771;52.434;17.056;2023-03-16T08:43:31;9.00;;;3.20;;
77602;SDS011;66771;52.434;17.056;2023-03-16T08:45:59;11.70;;;3.80;;
77602;SDS011;66771;52.434;17.056;2023-03-16T08:48:35;8.60;;;3.20;;
77602;SDS011;66771;52.434;17.056;2023-03-16T08:51:02;11.70;;;5.00;;
77602;SDS011;66771;52.434;17.056;2023-03-16T08:53:30;11.40;;;4.10;;
77602;SDS011;66771;52.434;17.056;2023-03-16T08:58:32;9.90;;;3.70;;
77602;SDS011;66771;52.434;17.056;2023-03-16T09:01:00;9.50;;;4.00;;
77602;SDS011;66771;52.434;17.056;2023-03-16T09:03:28;13.90;;;4.70;;
77602;SDS011;66771;52.434;17.056;2023-03-16T09:06:15;10.50;;;3.70;;
77602;SDS011;66771;52.434;17.056;2023-03-16T09:08:43;9.00;;;3.50;;
77602;SDS011;66771;52.434;17.056;2023-03-16T09:11:14;8.20;;;3.60;;
77602;SDS011;66771;52.434;17.056;2023-03-16T09:13:42;10.90;;;3.50;;
77602;SDS011;66771;52.434;17.056;2023-03-16T09:19:04;11.70;;;3.80;;
77602;SDS011;66771;52.434;17.056;2023-03-16T09:21:48;14.70;;;4.60;;
77602;SDS011;66771;52.434;17.056;2023-03-16T09:24:20;10.30;;;4.40;;
77602;SDS011;66771;52.434;17.056;2023-03-16T09:26:48;12.50;;;3.90;;
77602;SDS011;66771;52.434;17.056;2023-03-16T09:29:20;11.50;;;4.20;;
77602;SDS011;66771;52.434;17.056;2023-03-16T09:31:49;6.10;;;3.50;;
77602;SDS011;66771;52.434;17.056;2023-03-16T09:34:19;10.10;;;3.80;;
77602;SDS011;66771;52.434;17.056;2023-03-16T09:36:51;12.30;;;3.80;;
77602;SDS011;66771;52.434;17.056;2023-03-16T09:39:19;10.30;;;3.80;;
77602;SDS011;66771;52.434;17.056;2023-03-16T09:48:44;8.60;;;2.60;;
77602;SDS011;66771;52.434;17.056;2023-03-16T09:57:55;8.40;;;2.70;;
77602;SDS011;66771;52.434;17.056;2023-03-16T10:00:37;10.80;;;2.80;;
77602;SDS011;66771;52.434;17.056;2023-03-16T10:06:18;7.70;;;3.90;;
77602;SDS011;66771;52.434;17.056;2023-03-16T10:09:15;11.10;;;3.40;;
77602;SDS011;66771;52.434;17.056;2023-03-16T10:12:19;8.50;;;3.40;;
77602;SDS011;66771;52.434;17.056;2023-03-16T10:15:05;8.50;;;3.30;;
77602;SDS011;66771;52.434;17.056;2023-03-16T10:17:50;7.90;;;3.40;;
77602;SDS011;66771;52.434;17.056;2023-03-16T10:20:30;12.10;;;2.70;;
77602;SDS011;66771;52.434;17.056;2023-03-16T10:23:14;10.40;;;3.30;;
77602;SDS011;66771;52.434;17.056;2023-03-16T10:25:58;9.80;;;3.60;;
77602;SDS011;66771;52.434;17.056;2023-03-16T10:28:28;9.90;;;3.50;;
77602;SDS011;66771;52.434;17.056;2023-03-16T10:31:00;10.20;;;3.70;;
77602;SDS011;66771;52.434;17.056;2023-03-16T10:33:38;9.10;;;3.10;;
77602;SDS011;66771;52.434;17.056;2023-03-16T10:36:11;9.20;;;3.80;;
77602;SDS011;66771;52.434;17.056;2023-03-16T10:39:07;11.10;;;4.00;;
77602;SDS011;66771;52.434;17.056;2023-03-16T10:45:33;10.60;;;4.70;;
77602;SDS011;66771;52.434;17.056;2023-03-16T10:48:18;9.20;;;3.00;;
77602;SDS011;66771;52.434;17.056;2023-03-16T10:50:50;8.00;;;3.50;;
77602;SDS011;66771;52.434;17.056;2023-03-16T10:53:27;11.70;;;3.00;;
77602;SDS011;66771;52.434;17.056;2023-03-16T10:56:01;7.50;;;3.10;;
77602;SDS011;66771;52.434;17.056;2023-03-16T10:58:41;8.00;;;3.20;;
77602;SDS011;66771;52.434;17.056;2023-03-16T11:01:14;9.10;;;2.90;;
77602;SDS011;66771;52.434;17.056;2023-03-16T11:03:59;10.70;;;2.70;;
77602;SDS011;66771;52.434;17.056;2023-03-16T11:06:28;7.40;;;2.80;;
77602;SDS011;66771;52.434;17.056;2023-03-16T11:09:09;7.60;;;2.60;;
77602;SDS011;66771;52.434;17.056;2023-03-16T11:11:45;5.50;;;2.50;;
77602;SDS011;66771;52.434;17.056;2023-03-16T11:14:20;5.40;;;2.50;;
77602;SDS011;66771;52.434;17.056;2023-03-16T11:17:02;5.00;;;2.20;;
77602;SDS011;66771;52.434;17.056;2023-03-16T11:19:43;7.30;;;2.30;;
77602;SDS011;66771;52.434;17.056;2023-03-16T11:22:21;6.10;;;2.60;;
77602;SDS011;66771;52.434;17.056;2023-03-16T11:33:13;6.70;;;2.10;;
77602;SDS011;66771;52.434;17.056;2023-03-16T11:38:19;8.80;;;2.00;;
77602;SDS011;66771;52.434;17.056;2023-03-16T11:52:30;9.50;;;2.40;;
77602;SDS011;66771;52.434;17.056;2023-03-16T12:05:53;5.90;;;1.90;;
77602;SDS011;66771;52.434;17.056;2023-03-16T12:08:40;8.10;;;2.30;;
77602;SDS011;66771;52.434;17.056;2023-03-16T12:14:32;3.20;;;2.00;;
77602;SDS011;66771;52.434;17.056;2023-03-16T12:17:28;6.10;;;2.60;;
77602;SDS011;66771;52.434;17.056;2023-03-16T12:25:35;4.30;;;1.90;;
77602;SDS011;66771;52.434;17.056;2023-03-16T12:28:15;3.60;;;1.60;;
77602;SDS011;66771;52.434;17.056;2023-03-16T12:30:59;4.00;;;2.00;;
77602;SDS011;66771;52.434;17.056;2023-03-16T12:33:52;5.40;;;2.10;;
77602;SDS011;66771;52.434;17.056;2023-03-16T12:39:16;4.20;;;2.00;;
77602;SDS011;66771;52.434;17.056;2023-03-16T12:44:51;6.30;;;1.80;;
77602;SDS011;66771;52.434;17.056;2023-03-16T12:50:24;6.10;;;2.30;;
77602;SDS011;66771;52.434;17.056;2023-03-16T12:52:53;4.70;;;2.40;;
77602;SDS011;66771;52.434;17.056;2023-03-16T12:58:06;6.70;;;2.30;;
77602;SDS011;66771;52.434;17.056;2023-03-16T13:00:37;6.10;;;2.60;;
77602;SDS011;66771;52.434;17.056;2023-03-16T13:03:12;5.90;;;2.10;;
77602;SDS011;66771;52.434;17.056;2023-03-16T13:05:55;5.40;;;2.10;;
77602;SDS011;66771;52.434;17.056;2023-03-16T13:08:39;4.80;;;1.60;;
77602;SDS011;66771;52.434;17.056;2023-03-16T13:11:09;5.10;;;1.70;;
77602;SDS011;66771;52.434;17.056;2023-03-16T13:13:48;2.70;;;1.60;;
77602;SDS011;66771;52.434;17.056;2023-03-16T13:16:31;5.20;;;2.30;;
77602;SDS011;66771;52.434;17.056;2023-03-16T13:22:00;4.00;;;1.60;;
77602;SDS011;66771;52.434;17.056;2023-03-16T13:24:54;3.20;;;1.50;;
77602;SDS011;66771;52.434;17.056;2023-03-16T13:27:27;4.50;;;1.80;;
77602;SDS011;66771;52.434;17.056;2023-03-16T13:30:11;5.50;;;2.20;;
77602;SDS011;66771;52.434;17.056;2023-03-16T13:32:54;3.00;;;1.50;;
77602;SDS011;66771;52.434;17.056;2023-03-16T13:35:28;5.90;;;2.20;;
77602;SDS011;66771;52.434;17.056;2023-03-16T13:38:02;5.60;;;2.10;;
77602;SDS011;66771;52.434;17.056;2023-03-16T13:40:34;6.30;;;2.00;;
77602;SDS011;66771;52.434;17.056;2023-03-16T13:43:18;4.30;;;1.90;;
77602;SDS011;66771;52.434;17.056;2023-03-16T13:45:57;5.00;;;1.70;;
77602;SDS011;66771;52.434;17.056;2023-03-16T13:48:25;4.30;;;1.90;;
77602;SDS011;66771;52.434;17.056;2023-03-16T13:50:54;6.20;;;2.00;;
77602;SDS011;66771;52.434;17.056;2023-03-16T13:53:34;4.30;;;1.80;;
77602;SDS011;66771;52.434;17.056;2023-03-16T13:56:14;4.30;;;1.70;;
77602;SDS011;66771;52.434;17.056;2023-03-16T13:58:52;6.60;;;1.80;;
77602;SDS011;66771;52.434;17.056;2023-03-16T14:01:31;7.40;;;2.00;;
77602;SDS011;66771;52.434;17.056;2023-03-16T14:04:08;4.70;;;2.10;;
77602;SDS011;66771;52.434;17.056;2023-03-16T14:06:55;2.50;;;1.30;;
77602;SDS011;66771;52.434;17.056;2023-03-16T14:09:32;5.80;;;2.10;;
77602;SDS011;66771;52.434;17.056;2023-03-16T14:12:01;7.10;;;2.20;;
77602;SDS011;66771;52.434;17.056;2023-03-16T14:14:36;6.20;;;1.80;;
77602;SDS011;66771;52.434;17.056;2023-03-16T14:17:15;6.90;;;2.10;;
77602;SDS011;66771;52.434;17.056;2023-03-16T14:19:50;6.60;;;2.30;;
77602;SDS011;66771;52.434;17.056;2023-03-16T14:22:30;4.20;;;2.00;;
77602;SDS011;66771;52.434;17.056;2023-03-16T14:25:04;4.10;;;2.20;;
77602;SDS011;66771;52.434;17.056;2023-03-16T14:32:52;2.80;;;1.90;;
77602;SDS011;66771;52.434;17.056;2023-03-16T14:35:31;4.00;;;1.80;;
77602;SDS011;66771;52.434;17.056;2023-03-16T14:38:20;2.80;;;1.40;;
77602;SDS011;66771;52.434;17.056;2023-03-16T14:40:52;3.70;;;1.90;;
77602;SDS011;66771;52.434;17.056;2023-03-16T14:47:27;5.10;;;2.00;;
77602;SDS011;66771;52.434;17.056;2023-03-16T14:50:02;4.80;;;1.90;;
77602;SDS011;66771;52.434;17.056;2023-03-16T14:52:38;7.00;;;2.30;;
77602;SDS011;66771;52.434;17.056;2023-03-16T14:55:13;4.10;;;2.10;;
77602;SDS011;66771;52.434;17.056;2023-03-16T14:57:42;4.60;;;1.90;;
77602;SDS011;66771;52.434;17.056;2023-03-16T15:00:12;8.60;;;1.90;;
77602;SDS011;66771;52.434;17.056;2023-03-16T15:02:44;3.40;;;1.60;;
77602;SDS011;66771;52.434;17.056;2023-03-16T15:05:36;5.70;;;2.10;;
77602;SDS011;66771;52.434;17.056;2023-03-16T15:08:06;4.10;;;1.70;;
77602;SDS011;66771;52.434;17.056;2023-03-16T15:10:42;5.70;;;2.70;;
77602;SDS011;66771;52.434;17.056;2023-03-16T15:13:19;5.00;;;2.30;;
77602;SDS011;66771;52.434;17.056;2023-03-16T15:16:10;4.90;;;2.00;;
77602;SDS011;66771;52.434;17.056;2023-03-16T15:18:41;3.80;;;1.90;;
77602;SDS011;66771;52.434;17.056;2023-03-16T15:21:15;7.90;;;2.20;;
77602;SDS011;66771;52.434;17.056;2023-03-16T15:23:48;7.10;;;2.90;;
77602;SDS011;66771;52.434;17.056;2023-03-16T15:26:17;5.90;;;2.60;;
77602;SDS011;66771;52.434;17.056;2023-03-16T15:28:50;7.30;;;2.60;;
77602;SDS011;66771;52.434;17.056;2023-03-16T15:31:19;14.80;;;5.20;;
77602;SDS011;66771;52.434;17.056;2023-03-16T15:33:52;16.60;;;5.80;;
77602;SDS011;66771;52.434;17.056;2023-03-16T15:36:20;13.00;;;4.60;;
77602;SDS011;66771;52.434;17.056;2023-03-16T15:38:52;9.40;;;3.60;;
77602;SDS011;66771;52.434;17.056;2023-03-16T15:41:20;7.30;;;2.60;;
77602;SDS011;66771;52.434;17.056;2023-03-16T15:43:49;7.10;;;2.00;;
77602;SDS011;66771;52.434;17.056;2023-03-16T15:46:20;4.50;;;1.90;;
77602;SDS011;66771;52.434;17.056;2023-03-16T15:48:52;8.40;;;2.60;;
77602;SDS011;66771;52.434;17.056;2023-03-16T15:51:20;5.90;;;2.10;;
77602;SDS011;66771;52.434;17.056;2023-03-16T15:53:54;6.70;;;2.50;;
77602;SDS011;66771;52.434;17.056;2023-03-16T15:56:25;6.00;;;2.60;;
77602;SDS011;66771;52.434;17.056;2023-03-16T15:58:59;5.30;;;2.40;;
77602;SDS011;66771;52.434;17.056;2023-03-16T16:01:50;4.10;;;2.30;;
77602;SDS011;66771;52.434;17.056;2023-03-16T16:04:21;7.80;;;3.20;;
77602;SDS011;66771;52.434;17.056;2023-03-16T16:06:50;6.50;;;3.20;;
77602;SDS011;66771;52.434;17.056;2023-03-16T16:09:20;8.90;;;3.00;;
77602;SDS011;66771;52.434;17.056;2023-03-16T16:11:51;6.50;;;3.00;;
77602;SDS011;66771;52.434;17.056;2023-03-16T16:14:20;8.40;;;3.20;;
77602;SDS011;66771;52.434;17.056;2023-03-16T16:16:50;6.40;;;3.10;;
77602;SDS011;66771;52.434;17.056;2023-03-16T16:19:18;8.00;;;3.30;;
77602;SDS011;66771;52.434;17.056;2023-03-16T16:21:45;5.60;;;2.90;;
77602;SDS011;66771;52.434;17.056;2023-03-16T16:24:13;8.30;;;3.90;;
77602;SDS011;66771;52.434;17.056;2023-03-16T16:26:41;8.10;;;3.20;;
77602;SDS011;66771;52.434;17.056;2023-03-16T16:29:34;8.20;;;3.70;;
77602;SDS011;66771;52.434;17.056;2023-03-16T16:32:03;6.90;;;3.70;;
77602;SDS011;66771;52.434;17.056;2023-03-16T16:34:54;7.70;;;3.60;;
77602;SDS011;66771;52.434;17.056;2023-03-16T16:37:21;6.80;;;3.20;;
77602;SDS011;66771;52.434;17.056;2023-03-16T16:39:48;8.90;;;3.90;;